sensor_id;sensor_type;location;lat;lon;timestamp;P1;durP1;ratioP1;P2;durP2;ratioP2
44989;SDS011;30723;51.206;3.326;2023-02-08T00:00:57;82.72;;;39.05;;
44989;SDS011;30723;51.206;3.326;2023-02-08T00:03:23;85.50;;;39.33;;
44989;SDS011;30723;51.206;3.326;2023-02-08T00:05:53;83.60;;;39.60;;
44989;SDS011;30723;51.206;3.326;2023-02-08T00:08:19;87.32;;;39.92;;
44989;SDS011;30723;51.206;3.326;2023-02-08T00:10:46;97.35;;;41.15;;
44989;SDS011;30723;51.206;3.326;2023-02-08T00:13:13;94.63;;;41.38;;
44989;SDS011;30723;51.206;3.326;2023-02-08T00:15:40;92.18;;;41.17;;
44989;SDS011;30723;51.206;3.326;2023-02-08T00:18:07;98.47;;;43.20;;
44989;SDS011;30723;51.206;3.326;2023-02-08T00:20:34;97.20;;;43.47;;
44989;SDS011;30723;51.206;3.326;2023-02-08T00:23:04;96.17;;;41.97;;
44989;SDS011;30723;51.206;3.326;2023-02-08T00:25:30;99.22;;;43.92;;
44989;SDS011;30723;51.206;3.326;2023-02-08T00:27:56;102.50;;;44.72;;
44989;SDS011;30723;51.206;3.326;2023-02-08T00:30:23;92.05;;;43.33;;
44989;SDS011;30723;51.206;3.326;2023-02-08T00:32:50;92.43;;;42.53;;
44989;SDS011;30723;51.206;3.326;2023-02-08T00:35:16;91.45;;;42.65;;
44989;SDS011;30723;51.206;3.326;2023-02-08T00:37:43;99.55;;;42.90;;
44989;SDS011;30723;51.206;3.326;2023-02-08T00:40:10;90.85;;;41.50;;
44989;SDS011;30723;51.206;3.326;2023-02-08T00:42:40;98.80;;;43.45;;
44989;SDS011;30723;51.206;3.326;2023-02-08T00:45:05;101.70;;;40.53;;
44989;SDS011;30723;51.206;3.326;2023-02-08T00:47:33;89.65;;;42.60;;
44989;SDS011;30723;51.206;3.326;2023-02-08T00:50:00;98.78;;;42.83;;
44989;SDS011;30723;51.206;3.326;2023-02-08T00:52:27;95.55;;;43.03;;
44989;SDS011;30723;51.206;3.326;2023-02-08T00:54:54;94.00;;;41.58;;
44989;SDS011;30723;51.206;3.326;2023-02-08T00:57:24;95.53;;;41.95;;
44989;SDS011;30723;51.206;3.326;2023-02-08T00:59:51;93.03;;;41.20;;
44989;SDS011;30723;51.206;3.326;2023-02-08T01:02:17;88.05;;;40.03;;
44989;SDS011;30723;51.206;3.326;2023-02-08T01:04:44;91.57;;;40.22;;
44989;SDS011;30723;51.206;3.326;2023-02-08T01:07:10;87.85;;;41.53;;
44989;SDS011;30723;51.206;3.326;2023-02-08T01:09:37;86.82;;;40.40;;
44989;SDS011;30723;51.206;3.326;2023-02-08T01:12:04;91.57;;;42.22;;
44989;SDS011;30723;51.206;3.326;2023-02-08T01:14:31;85.75;;;40.15;;
44989;SDS011;30723;51.206;3.326;2023-02-08T01:16:58;92.38;;;43.42;;
44989;SDS011;30723;51.206;3.326;2023-02-08T01:19:24;108.05;;;43.08;;
44989;SDS011;30723;51.206;3.326;2023-02-08T01:21:51;83.18;;;39.28;;
44989;SDS011;30723;51.206;3.326;2023-02-08T01:24:19;99.93;;;42.30;;
44989;SDS011;30723;51.206;3.326;2023-02-08T01:26:46;89.35;;;41.97;;
44989;SDS011;30723;51.206;3.326;2023-02-08T01:29:13;100.28;;;41.67;;
44989;SDS011;30723;51.206;3.326;2023-02-08T01:31:40;89.93;;;39.30;;
44989;SDS011;30723;51.206;3.326;2023-02-08T01:34:07;94.18;;;40.38;;
44989;SDS011;30723;51.206;3.326;2023-02-08T01:36:35;81.43;;;37.97;;
44989;SDS011;30723;51.206;3.326;2023-02-08T01:39:03;88.38;;;39.35;;
44989;SDS011;30723;51.206;3.326;2023-02-08T01:41:32;82.05;;;37.70;;
44989;SDS011;30723;51.206;3.326;2023-02-08T01:46:37;84.63;;;36.97;;
44989;SDS011;30723;51.206;3.326;2023-02-08T01:49:07;82.70;;;36.53;;
44989;SDS011;30723;51.206;3.326;2023-02-08T01:52:02;74.93;;;34.78;;
44989;SDS011;30723;51.206;3.326;2023-02-08T01:54:46;76.18;;;35.17;;
44989;SDS011;30723;51.206;3.326;2023-02-08T01:57:25;92.38;;;36.75;;
44989;SDS011;30723;51.206;3.326;2023-02-08T01:59:56;83.85;;;36.33;;
44989;SDS011;30723;51.206;3.326;2023-02-08T02:02:41;72.10;;;35.33;;
44989;SDS011;30723;51.206;3.326;2023-02-08T02:05:10;80.13;;;36.15;;
44989;SDS011;30723;51.206;3.326;2023-02-08T02:07:36;70.25;;;34.90;;
44989;SDS011;30723;51.206;3.326;2023-02-08T02:12:59;81.40;;;35.30;;
44989;SDS011;30723;51.206;3.326;2023-02-08T02:15:32;76.57;;;35.78;;
44989;SDS011;30723;51.206;3.326;2023-02-08T02:17:59;83.70;;;34.90;;
44989;SDS011;30723;51.206;3.326;2023-02-08T02:23:27;74.90;;;34.55;;
44989;SDS011;30723;51.206;3.326;2023-02-08T02:41:57;73.88;;;33.58;;
44989;SDS011;30723;51.206;3.326;2023-02-08T02:47:18;71.25;;;33.45;;
44989;SDS011;30723;51.206;3.326;2023-02-08T02:52:45;68.88;;;33.55;;
44989;SDS011;30723;51.206;3.326;2023-02-08T02:55:22;69.32;;;32.88;;
44989;SDS011;30723;51.206;3.326;2023-02-08T02:57:52;75.70;;;32.53;;
44989;SDS011;30723;51.206;3.326;2023-02-08T03:00:22;75.40;;;33.05;;
44989;SDS011;30723;51.206;3.326;2023-02-08T03:02:51;69.55;;;31.90;;
44989;SDS011;30723;51.206;3.326;2023-02-08T03:05:19;64.45;;;32.33;;
44989;SDS011;30723;51.206;3.326;2023-02-08T03:07:55;69.00;;;32.83;;
44989;SDS011;30723;51.206;3.326;2023-02-08T03:24:23;56.03;;;28.48;;
44989;SDS011;30723;51.206;3.326;2023-02-08T03:26:57;58.20;;;28.30;;
44989;SDS011;30723;51.206;3.326;2023-02-08T03:29:46;65.15;;;29.08;;
44989;SDS011;30723;51.206;3.326;2023-02-08T03:34:59;55.38;;;27.58;;
44989;SDS011;30723;51.206;3.326;2023-02-08T03:37:37;57.78;;;28.52;;
44989;SDS011;30723;51.206;3.326;2023-02-08T03:40:16;59.28;;;28.67;;
44989;SDS011;30723;51.206;3.326;2023-02-08T03:42:54;59.17;;;27.92;;
44989;SDS011;30723;51.206;3.326;2023-02-08T03:45:32;55.85;;;27.63;;
44989;SDS011;30723;51.206;3.326;2023-02-08T03:48:03;65.35;;;28.38;;
44989;SDS011;30723;51.206;3.326;2023-02-08T03:50:34;59.00;;;28.23;;
44989;SDS011;30723;51.206;3.326;2023-02-08T03:53:03;62.63;;;28.13;;
44989;SDS011;30723;51.206;3.326;2023-02-08T03:55:32;54.40;;;25.92;;
44989;SDS011;30723;51.206;3.326;2023-02-08T03:58:03;58.03;;;27.25;;
44989;SDS011;30723;51.206;3.326;2023-02-08T04:00:37;61.00;;;28.30;;
44989;SDS011;30723;51.206;3.326;2023-02-08T04:03:09;60.38;;;27.48;;
44989;SDS011;30723;51.206;3.326;2023-02-08T04:05:43;57.47;;;26.10;;
44989;SDS011;30723;51.206;3.326;2023-02-08T04:08:11;55.25;;;26.08;;
44989;SDS011;30723;51.206;3.326;2023-02-08T04:10:38;58.63;;;27.92;;
44989;SDS011;30723;51.206;3.326;2023-02-08T04:13:03;55.65;;;26.55;;
44989;SDS011;30723;51.206;3.326;2023-02-08T04:15:30;52.55;;;26.30;;
44989;SDS011;30723;51.206;3.326;2023-02-08T04:17:57;52.92;;;25.85;;
44989;SDS011;30723;51.206;3.326;2023-02-08T04:20:23;61.70;;;26.67;;
44989;SDS011;30723;51.206;3.326;2023-02-08T04:22:50;55.63;;;26.92;;
44989;SDS011;30723;51.206;3.326;2023-02-08T04:25:18;57.58;;;26.00;;
44989;SDS011;30723;51.206;3.326;2023-02-08T04:27:47;55.22;;;27.05;;
44989;SDS011;30723;51.206;3.326;2023-02-08T04:30:13;49.30;;;25.48;;
44989;SDS011;30723;51.206;3.326;2023-02-08T04:32:40;56.25;;;25.92;;
44989;SDS011;30723;51.206;3.326;2023-02-08T04:35:06;54.35;;;25.30;;
44989;SDS011;30723;51.206;3.326;2023-02-08T04:37:32;59.75;;;26.10;;
44989;SDS011;30723;51.206;3.326;2023-02-08T04:39:59;54.88;;;24.65;;
44989;SDS011;30723;51.206;3.326;2023-02-08T04:42:26;52.78;;;25.15;;
44989;SDS011;30723;51.206;3.326;2023-02-08T04:44:53;53.80;;;24.65;;
44989;SDS011;30723;51.206;3.326;2023-02-08T04:47:19;53.17;;;26.02;;
44989;SDS011;30723;51.206;3.326;2023-02-08T04:49:46;55.40;;;25.88;;
44989;SDS011;30723;51.206;3.326;2023-02-08T04:52:13;55.65;;;25.65;;
44989;SDS011;30723;51.206;3.326;2023-02-08T04:54:40;59.40;;;27.08;;
44989;SDS011;30723;51.206;3.326;2023-02-08T04:57:06;53.05;;;25.95;;
44989;SDS011;30723;51.206;3.326;2023-02-08T04:59:36;59.05;;;25.85;;
44989;SDS011;30723;51.206;3.326;2023-02-08T05:02:02;54.72;;;26.73;;
44989;SDS011;30723;51.206;3.326;2023-02-08T05:04:29;62.40;;;26.83;;
44989;SDS011;30723;51.206;3.326;2023-02-08T05:06:57;61.47;;;27.05;;
44989;SDS011;30723;51.206;3.326;2023-02-08T05:09:24;55.95;;;26.80;;
44989;SDS011;30723;51.206;3.326;2023-02-08T05:11:50;49.80;;;24.10;;
44989;SDS011;30723;51.206;3.326;2023-02-08T05:14:16;51.40;;;25.55;;
44989;SDS011;30723;51.206;3.326;2023-02-08T05:16:43;56.33;;;25.92;;
44989;SDS011;30723;51.206;3.326;2023-02-08T05:19:10;58.05;;;27.02;;
44989;SDS011;30723;51.206;3.326;2023-02-08T05:21:36;51.72;;;25.13;;
44989;SDS011;30723;51.206;3.326;2023-02-08T05:24:03;60.22;;;25.95;;
44989;SDS011;30723;51.206;3.326;2023-02-08T05:26:31;44.42;;;23.15;;
44989;SDS011;30723;51.206;3.326;2023-02-08T05:28:58;51.38;;;25.65;;
44989;SDS011;30723;51.206;3.326;2023-02-08T05:31:24;53.47;;;25.65;;
44989;SDS011;30723;51.206;3.326;2023-02-08T05:33:50;50.15;;;24.73;;
44989;SDS011;30723;51.206;3.326;2023-02-08T05:36:18;54.92;;;27.00;;
44989;SDS011;30723;51.206;3.326;2023-02-08T05:38:45;56.22;;;26.63;;
44989;SDS011;30723;51.206;3.326;2023-02-08T05:41:11;55.30;;;27.02;;
44989;SDS011;30723;51.206;3.326;2023-02-08T05:43:38;56.42;;;26.10;;
44989;SDS011;30723;51.206;3.326;2023-02-08T05:46:05;54.35;;;26.52;;
44989;SDS011;30723;51.206;3.326;2023-02-08T05:48:32;53.03;;;25.23;;
44989;SDS011;30723;51.206;3.326;2023-02-08T05:50:58;55.78;;;26.05;;
44989;SDS011;30723;51.206;3.326;2023-02-08T05:53:25;53.88;;;26.50;;
44989;SDS011;30723;51.206;3.326;2023-02-08T05:55:52;52.67;;;26.02;;
44989;SDS011;30723;51.206;3.326;2023-02-08T05:58:18;60.65;;;25.95;;
44989;SDS011;30723;51.206;3.326;2023-02-08T06:00:44;56.00;;;26.48;;
44989;SDS011;30723;51.206;3.326;2023-02-08T06:03:10;53.33;;;25.88;;
44989;SDS011;30723;51.206;3.326;2023-02-08T06:05:37;52.45;;;25.15;;
44989;SDS011;30723;51.206;3.326;2023-02-08T06:08:05;55.53;;;26.48;;
44989;SDS011;30723;51.206;3.326;2023-02-08T06:10:32;50.55;;;25.65;;
44989;SDS011;30723;51.206;3.326;2023-02-08T06:12:59;49.90;;;24.92;;
44989;SDS011;30723;51.206;3.326;2023-02-08T06:15:26;59.90;;;27.52;;
44989;SDS011;30723;51.206;3.326;2023-02-08T06:17:53;59.08;;;24.60;;
44989;SDS011;30723;51.206;3.326;2023-02-08T06:20:20;45.33;;;23.63;;
44989;SDS011;30723;51.206;3.326;2023-02-08T06:22:47;44.63;;;23.83;;
44989;SDS011;30723;51.206;3.326;2023-02-08T06:25:14;57.60;;;25.13;;
44989;SDS011;30723;51.206;3.326;2023-02-08T06:27:41;52.88;;;24.90;;
44989;SDS011;30723;51.206;3.326;2023-02-08T06:30:08;49.15;;;24.50;;
44989;SDS011;30723;51.206;3.326;2023-02-08T06:32:34;53.00;;;25.27;;
44989;SDS011;30723;51.206;3.326;2023-02-08T06:35:01;53.75;;;25.02;;
44989;SDS011;30723;51.206;3.326;2023-02-08T06:37:28;44.88;;;22.77;;
44989;SDS011;30723;51.206;3.326;2023-02-08T06:39:55;45.95;;;23.88;;
44989;SDS011;30723;51.206;3.326;2023-02-08T06:42:21;55.67;;;24.50;;
44989;SDS011;30723;51.206;3.326;2023-02-08T06:44:47;51.45;;;25.55;;
44989;SDS011;30723;51.206;3.326;2023-02-08T06:47:14;54.90;;;26.85;;
44989;SDS011;30723;51.206;3.326;2023-02-08T06:49:41;50.67;;;25.88;;
44989;SDS011;30723;51.206;3.326;2023-02-08T06:52:07;52.10;;;25.98;;
44989;SDS011;30723;51.206;3.326;2023-02-08T06:54:34;53.92;;;25.63;;
44989;SDS011;30723;51.206;3.326;2023-02-08T06:57:08;65.22;;;27.10;;
44989;SDS011;30723;51.206;3.326;2023-02-08T06:59:37;63.47;;;24.77;;
44989;SDS011;30723;51.206;3.326;2023-02-08T07:02:04;58.05;;;25.52;;
44989;SDS011;30723;51.206;3.326;2023-02-08T07:04:35;49.88;;;24.15;;
44989;SDS011;30723;51.206;3.326;2023-02-08T07:07:02;55.83;;;24.00;;
44989;SDS011;30723;51.206;3.326;2023-02-08T07:09:29;53.88;;;26.40;;
44989;SDS011;30723;51.206;3.326;2023-02-08T07:11:57;55.65;;;25.50;;
44989;SDS011;30723;51.206;3.326;2023-02-08T07:14:23;56.22;;;24.60;;
44989;SDS011;30723;51.206;3.326;2023-02-08T07:16:50;48.90;;;25.83;;
44989;SDS011;30723;51.206;3.326;2023-02-08T07:19:16;51.95;;;25.25;;
44989;SDS011;30723;51.206;3.326;2023-02-08T07:21:42;56.95;;;26.23;;
44989;SDS011;30723;51.206;3.326;2023-02-08T07:24:09;54.17;;;26.27;;
44989;SDS011;30723;51.206;3.326;2023-02-08T07:26:36;50.47;;;24.50;;
44989;SDS011;30723;51.206;3.326;2023-02-08T07:29:02;52.22;;;26.30;;
44989;SDS011;30723;51.206;3.326;2023-02-08T07:31:29;59.80;;;25.35;;
44989;SDS011;30723;51.206;3.326;2023-02-08T07:33:54;50.53;;;24.75;;
44989;SDS011;30723;51.206;3.326;2023-02-08T07:36:23;50.00;;;26.92;;
44989;SDS011;30723;51.206;3.326;2023-02-08T07:38:49;59.08;;;26.02;;
44989;SDS011;30723;51.206;3.326;2023-02-08T07:41:16;62.10;;;27.90;;
44989;SDS011;30723;51.206;3.326;2023-02-08T07:43:42;57.38;;;26.27;;
44989;SDS011;30723;51.206;3.326;2023-02-08T07:46:11;74.72;;;32.88;;
44989;SDS011;30723;51.206;3.326;2023-02-08T07:48:46;60.17;;;29.17;;
44989;SDS011;30723;51.206;3.326;2023-02-08T07:51:16;62.00;;;27.88;;
44989;SDS011;30723;51.206;3.326;2023-02-08T07:53:43;62.92;;;29.83;;
44989;SDS011;30723;51.206;3.326;2023-02-08T07:56:10;61.63;;;29.17;;
44989;SDS011;30723;51.206;3.326;2023-02-08T07:58:37;59.50;;;30.55;;
44989;SDS011;30723;51.206;3.326;2023-02-08T08:01:03;57.35;;;30.48;;
44989;SDS011;30723;51.206;3.326;2023-02-08T08:03:29;60.50;;;29.83;;
44989;SDS011;30723;51.206;3.326;2023-02-08T08:05:55;62.17;;;30.95;;
44989;SDS011;30723;51.206;3.326;2023-02-08T08:08:22;60.72;;;30.83;;
44989;SDS011;30723;51.206;3.326;2023-02-08T08:10:48;74.07;;;34.08;;
44989;SDS011;30723;51.206;3.326;2023-02-08T08:13:15;60.25;;;31.05;;
44989;SDS011;30723;51.206;3.326;2023-02-08T08:15:42;72.43;;;35.47;;
44989;SDS011;30723;51.206;3.326;2023-02-08T08:18:08;71.95;;;34.00;;
44989;SDS011;30723;51.206;3.326;2023-02-08T08:20:35;69.15;;;36.38;;
44989;SDS011;30723;51.206;3.326;2023-02-08T08:23:02;64.82;;;33.17;;
44989;SDS011;30723;51.206;3.326;2023-02-08T08:25:28;59.28;;;30.25;;
44989;SDS011;30723;51.206;3.326;2023-02-08T08:27:54;60.22;;;31.30;;
44989;SDS011;30723;51.206;3.326;2023-02-08T08:30:23;57.67;;;30.63;;
44989;SDS011;30723;51.206;3.326;2023-02-08T08:32:49;64.78;;;31.80;;
44989;SDS011;30723;51.206;3.326;2023-02-08T08:35:16;70.75;;;33.85;;
44989;SDS011;30723;51.206;3.326;2023-02-08T08:37:42;65.65;;;33.03;;
44989;SDS011;30723;51.206;3.326;2023-02-08T08:40:09;77.70;;;33.42;;
44989;SDS011;30723;51.206;3.326;2023-02-08T08:42:37;67.07;;;33.20;;
44989;SDS011;30723;51.206;3.326;2023-02-08T08:45:06;64.35;;;33.40;;
44989;SDS011;30723;51.206;3.326;2023-02-08T08:47:34;68.30;;;35.70;;
44989;SDS011;30723;51.206;3.326;2023-02-08T08:50:01;66.20;;;36.75;;
44989;SDS011;30723;51.206;3.326;2023-02-08T08:52:27;69.75;;;37.63;;
44989;SDS011;30723;51.206;3.326;2023-02-08T08:54:54;74.75;;;40.53;;
44989;SDS011;30723;51.206;3.326;2023-02-08T08:57:21;78.80;;;37.13;;
44989;SDS011;30723;51.206;3.326;2023-02-08T08:59:47;72.90;;;37.50;;
44989;SDS011;30723;51.206;3.326;2023-02-08T09:02:14;66.40;;;36.30;;
44989;SDS011;30723;51.206;3.326;2023-02-08T09:04:41;64.90;;;34.22;;
44989;SDS011;30723;51.206;3.326;2023-02-08T09:07:07;66.72;;;35.33;;
44989;SDS011;30723;51.206;3.326;2023-02-08T09:09:34;67.20;;;36.35;;
44989;SDS011;30723;51.206;3.326;2023-02-08T09:12:01;70.15;;;37.03;;
44989;SDS011;30723;51.206;3.326;2023-02-08T09:14:29;69.43;;;35.90;;
44989;SDS011;30723;51.206;3.326;2023-02-08T09:16:55;70.07;;;37.83;;
44989;SDS011;30723;51.206;3.326;2023-02-08T09:19:22;70.28;;;38.15;;
44989;SDS011;30723;51.206;3.326;2023-02-08T09:21:49;76.22;;;38.83;;
44989;SDS011;30723;51.206;3.326;2023-02-08T09:24:16;66.72;;;35.78;;
44989;SDS011;30723;51.206;3.326;2023-02-08T09:26:43;69.47;;;37.05;;
44989;SDS011;30723;51.206;3.326;2023-02-08T09:29:10;75.72;;;37.08;;
44989;SDS011;30723;51.206;3.326;2023-02-08T09:31:37;63.67;;;35.80;;
44989;SDS011;30723;51.206;3.326;2023-02-08T09:34:03;67.07;;;35.30;;
44989;SDS011;30723;51.206;3.326;2023-02-08T09:36:31;58.08;;;32.15;;
44989;SDS011;30723;51.206;3.326;2023-02-08T09:39:04;61.78;;;32.72;;
44989;SDS011;30723;51.206;3.326;2023-02-08T09:50:25;58.75;;;31.75;;
44989;SDS011;30723;51.206;3.326;2023-02-08T09:53:06;59.13;;;31.92;;
44989;SDS011;30723;51.206;3.326;2023-02-08T09:55:39;58.83;;;31.95;;
44989;SDS011;30723;51.206;3.326;2023-02-08T09:58:32;62.45;;;32.60;;
44989;SDS011;30723;51.206;3.326;2023-02-08T10:01:11;62.58;;;32.75;;
44989;SDS011;30723;51.206;3.326;2023-02-08T10:03:54;53.55;;;29.77;;
44989;SDS011;30723;51.206;3.326;2023-02-08T10:06:24;54.28;;;30.92;;
44989;SDS011;30723;51.206;3.326;2023-02-08T10:08:51;58.15;;;30.77;;
44989;SDS011;30723;51.206;3.326;2023-02-08T10:16:47;54.30;;;31.00;;
44989;SDS011;30723;51.206;3.326;2023-02-08T10:22:08;52.15;;;31.20;;
44989;SDS011;30723;51.206;3.326;2023-02-08T10:24:53;51.92;;;29.35;;
44989;SDS011;30723;51.206;3.326;2023-02-08T10:32:58;46.40;;;25.02;;
44989;SDS011;30723;51.206;3.326;2023-02-08T10:35:38;44.72;;;25.50;;
44989;SDS011;30723;51.206;3.326;2023-02-08T10:40:43;44.05;;;24.15;;
44989;SDS011;30723;51.206;3.326;2023-02-08T10:43:31;42.20;;;23.10;;
44989;SDS011;30723;51.206;3.326;2023-02-08T10:46:18;36.40;;;22.92;;
44989;SDS011;30723;51.206;3.326;2023-02-08T10:49:05;38.22;;;23.30;;
44989;SDS011;30723;51.206;3.326;2023-02-08T10:51:41;34.35;;;21.08;;
44989;SDS011;30723;51.206;3.326;2023-02-08T10:54:10;30.73;;;18.38;;
44989;SDS011;30723;51.206;3.326;2023-02-08T10:59:19;27.70;;;18.35;;
44989;SDS011;30723;51.206;3.326;2023-02-08T11:01:48;37.95;;;17.77;;
44989;SDS011;30723;51.206;3.326;2023-02-08T11:04:15;35.17;;;18.58;;
44989;SDS011;30723;51.206;3.326;2023-02-08T11:06:42;26.85;;;17.13;;
44989;SDS011;30723;51.206;3.326;2023-02-08T11:09:20;26.10;;;16.48;;
44989;SDS011;30723;51.206;3.326;2023-02-08T11:11:49;24.45;;;16.27;;
44989;SDS011;30723;51.206;3.326;2023-02-08T11:14:28;24.90;;;15.55;;
44989;SDS011;30723;51.206;3.326;2023-02-08T11:19:39;23.05;;;13.75;;
44989;SDS011;30723;51.206;3.326;2023-02-08T11:22:19;18.23;;;13.10;;
44989;SDS011;30723;51.206;3.326;2023-02-08T11:25:29;22.10;;;12.23;;
44989;SDS011;30723;51.206;3.326;2023-02-08T11:28:00;24.45;;;13.10;;
44989;SDS011;30723;51.206;3.326;2023-02-08T11:30:27;24.00;;;12.15;;
44989;SDS011;30723;51.206;3.326;2023-02-08T11:35:53;19.15;;;12.27;;
44989;SDS011;30723;51.206;3.326;2023-02-08T11:38:32;16.83;;;12.38;;
44989;SDS011;30723;51.206;3.326;2023-02-08T11:41:01;16.40;;;11.88;;
44989;SDS011;30723;51.206;3.326;2023-02-08T11:43:38;17.98;;;13.35;;
44989;SDS011;30723;51.206;3.326;2023-02-08T11:46:05;19.98;;;11.98;;
44989;SDS011;30723;51.206;3.326;2023-02-08T11:48:34;16.98;;;12.23;;
44989;SDS011;30723;51.206;3.326;2023-02-08T11:51:13;21.88;;;12.98;;
44989;SDS011;30723;51.206;3.326;2023-02-08T11:54:02;18.13;;;11.88;;
44989;SDS011;30723;51.206;3.326;2023-02-08T11:56:30;24.48;;;13.57;;
44989;SDS011;30723;51.206;3.326;2023-02-08T11:59:00;19.03;;;12.13;;
44989;SDS011;30723;51.206;3.326;2023-02-08T12:01:30;20.10;;;12.20;;
44989;SDS011;30723;51.206;3.326;2023-02-08T12:04:07;18.13;;;12.23;;
44989;SDS011;30723;51.206;3.326;2023-02-08T12:09:16;18.17;;;11.73;;
44989;SDS011;30723;51.206;3.326;2023-02-08T12:11:48;47.72;;;14.90;;
44989;SDS011;30723;51.206;3.326;2023-02-08T12:26:22;19.05;;;11.88;;
44989;SDS011;30723;51.206;3.326;2023-02-08T12:43:02;17.65;;;12.57;;
44989;SDS011;30723;51.206;3.326;2023-02-08T12:53:54;23.60;;;16.58;;
44989;SDS011;30723;51.206;3.326;2023-02-08T12:56:26;29.98;;;16.33;;
44989;SDS011;30723;51.206;3.326;2023-02-08T12:59:02;28.42;;;17.05;;
44989;SDS011;30723;51.206;3.326;2023-02-08T13:04:06;28.80;;;17.35;;
44989;SDS011;30723;51.206;3.326;2023-02-08T13:06:52;29.38;;;17.15;;
44989;SDS011;30723;51.206;3.326;2023-02-08T13:09:34;32.17;;;17.98;;
44989;SDS011;30723;51.206;3.326;2023-02-08T13:12:13;34.08;;;18.98;;
44989;SDS011;30723;51.206;3.326;2023-02-08T13:17:54;41.72;;;21.08;;
44989;SDS011;30723;51.206;3.326;2023-02-08T13:20:26;35.83;;;20.70;;
44989;SDS011;30723;51.206;3.326;2023-02-08T13:23:02;37.92;;;21.10;;
44989;SDS011;30723;51.206;3.326;2023-02-08T13:25:39;39.17;;;22.23;;
44989;SDS011;30723;51.206;3.326;2023-02-08T13:28:06;36.35;;;21.73;;
44989;SDS011;30723;51.206;3.326;2023-02-08T13:30:40;41.33;;;21.52;;
44989;SDS011;30723;51.206;3.326;2023-02-08T13:33:12;40.08;;;20.60;;
44989;SDS011;30723;51.206;3.326;2023-02-08T13:35:47;39.17;;;21.00;;
44989;SDS011;30723;51.206;3.326;2023-02-08T13:38:24;36.22;;;19.65;;
44989;SDS011;30723;51.206;3.326;2023-02-08T13:41:32;30.52;;;18.83;;
44989;SDS011;30723;51.206;3.326;2023-02-08T13:46:22;34.10;;;19.38;;
44989;SDS011;30723;51.206;3.326;2023-02-08T13:48:53;33.72;;;18.58;;
44989;SDS011;30723;51.206;3.326;2023-02-08T13:56:43;26.38;;;15.63;;
44989;SDS011;30723;51.206;3.326;2023-02-08T13:59:28;24.00;;;14.52;;
44989;SDS011;30723;51.206;3.326;2023-02-08T14:04:46;24.35;;;14.18;;
44989;SDS011;30723;51.206;3.326;2023-02-08T14:07:46;20.83;;;12.57;;
44989;SDS011;30723;51.206;3.326;2023-02-08T14:10:19;16.08;;;10.18;;
44989;SDS011;30723;51.206;3.326;2023-02-08T14:18:50;19.30;;;10.70;;
44989;SDS011;30723;51.206;3.326;2023-02-08T14:21:26;18.05;;;9.20;;
44989;SDS011;30723;51.206;3.326;2023-02-08T14:24:23;17.33;;;8.90;;
44989;SDS011;30723;51.206;3.326;2023-02-08T14:26:51;16.95;;;8.70;;
44989;SDS011;30723;51.206;3.326;2023-02-08T14:29:44;14.82;;;9.50;;
44989;SDS011;30723;51.206;3.326;2023-02-08T14:32:26;12.93;;;7.82;;
44989;SDS011;30723;51.206;3.326;2023-02-08T14:37:28;15.57;;;8.23;;
44989;SDS011;30723;51.206;3.326;2023-02-08T14:45:33;13.00;;;7.63;;
44989;SDS011;30723;51.206;3.326;2023-02-08T14:56:24;12.85;;;7.22;;
44989;SDS011;30723;51.206;3.326;2023-02-08T14:58:57;12.93;;;8.32;;
44989;SDS011;30723;51.206;3.326;2023-02-08T15:04:06;18.92;;;7.75;;
44989;SDS011;30723;51.206;3.326;2023-02-08T15:09:02;9.77;;;6.30;;
44989;SDS011;30723;51.206;3.326;2023-02-08T15:11:52;10.85;;;6.45;;
44989;SDS011;30723;51.206;3.326;2023-02-08T15:14:26;11.68;;;7.55;;
44989;SDS011;30723;51.206;3.326;2023-02-08T15:16:54;11.70;;;7.20;;
44989;SDS011;30723;51.206;3.326;2023-02-08T15:19:23;10.68;;;6.47;;
44989;SDS011;30723;51.206;3.326;2023-02-08T15:21:54;11.52;;;6.63;;
44989;SDS011;30723;51.206;3.326;2023-02-08T15:24:47;11.77;;;6.90;;
44989;SDS011;30723;51.206;3.326;2023-02-08T15:27:24;12.18;;;6.95;;
44989;SDS011;30723;51.206;3.326;2023-02-08T15:30:01;14.38;;;7.28;;
44989;SDS011;30723;51.206;3.326;2023-02-08T15:32:28;10.70;;;6.63;;
44989;SDS011;30723;51.206;3.326;2023-02-08T15:34:56;15.40;;;6.93;;
44989;SDS011;30723;51.206;3.326;2023-02-08T15:37:28;10.02;;;6.60;;
44989;SDS011;30723;51.206;3.326;2023-02-08T15:39:58;13.40;;;7.45;;
44989;SDS011;30723;51.206;3.326;2023-02-08T15:42:27;12.18;;;7.10;;
44989;SDS011;30723;51.206;3.326;2023-02-08T15:44:56;9.75;;;6.00;;
44989;SDS011;30723;51.206;3.326;2023-02-08T15:47:32;12.77;;;7.18;;
44989;SDS011;30723;51.206;3.326;2023-02-08T15:50:02;42.30;;;22.23;;
44989;SDS011;30723;51.206;3.326;2023-02-08T15:52:32;130.35;;;69.82;;
44989;SDS011;30723;51.206;3.326;2023-02-08T15:55:00;78.75;;;38.25;;
44989;SDS011;30723;51.206;3.326;2023-02-08T15:57:35;89.35;;;42.67;;
44989;SDS011;30723;51.206;3.326;2023-02-08T16:00:13;190.50;;;82.70;;
44989;SDS011;30723;51.206;3.326;2023-02-08T16:02:49;100.60;;;43.22;;
44989;SDS011;30723;51.206;3.326;2023-02-08T16:05:20;81.75;;;38.10;;
44989;SDS011;30723;51.206;3.326;2023-02-08T16:07:51;110.57;;;59.20;;
44989;SDS011;30723;51.206;3.326;2023-02-08T16:10:27;37.00;;;20.17;;
44989;SDS011;30723;51.206;3.326;2023-02-08T16:13:06;22.98;;;13.27;;
44989;SDS011;30723;51.206;3.326;2023-02-08T16:15:47;15.82;;;9.38;;
44989;SDS011;30723;51.206;3.326;2023-02-08T16:23:53;12.43;;;7.10;;
44989;SDS011;30723;51.206;3.326;2023-02-08T16:26:35;14.60;;;8.13;;
44989;SDS011;30723;51.206;3.326;2023-02-08T16:31:47;16.02;;;7.72;;
44989;SDS011;30723;51.206;3.326;2023-02-08T16:34:20;13.82;;;7.95;;
44989;SDS011;30723;51.206;3.326;2023-02-08T16:36:50;12.88;;;7.85;;
44989;SDS011;30723;51.206;3.326;2023-02-08T16:42:19;17.35;;;8.38;;
44989;SDS011;30723;51.206;3.326;2023-02-08T16:45:10;17.02;;;8.68;;
44989;SDS011;30723;51.206;3.326;2023-02-08T16:47:45;18.05;;;9.88;;
44989;SDS011;30723;51.206;3.326;2023-02-08T16:50:27;18.55;;;8.68;;
44989;SDS011;30723;51.206;3.326;2023-02-08T16:52:58;17.55;;;9.65;;
44989;SDS011;30723;51.206;3.326;2023-02-08T16:55:28;15.23;;;9.30;;
44989;SDS011;30723;51.206;3.326;2023-02-08T16:57:57;15.48;;;8.85;;
44989;SDS011;30723;51.206;3.326;2023-02-08T17:00:27;17.23;;;9.35;;
44989;SDS011;30723;51.206;3.326;2023-02-08T17:02:58;18.50;;;9.35;;
44989;SDS011;30723;51.206;3.326;2023-02-08T17:05:37;17.13;;;9.48;;
44989;SDS011;30723;51.206;3.326;2023-02-08T17:08:06;18.45;;;8.88;;
44989;SDS011;30723;51.206;3.326;2023-02-08T17:10:41;15.98;;;9.00;;
44989;SDS011;30723;51.206;3.326;2023-02-08T17:13:09;16.10;;;8.45;;
44989;SDS011;30723;51.206;3.326;2023-02-08T17:15:36;15.90;;;8.25;;
44989;SDS011;30723;51.206;3.326;2023-02-08T17:18:03;20.30;;;8.65;;
44989;SDS011;30723;51.206;3.326;2023-02-08T17:20:31;21.67;;;9.85;;
44989;SDS011;30723;51.206;3.326;2023-02-08T17:22:59;18.92;;;10.50;;
44989;SDS011;30723;51.206;3.326;2023-02-08T17:25:28;21.38;;;11.15;;
44989;SDS011;30723;51.206;3.326;2023-02-08T17:28:00;22.23;;;11.50;;
44989;SDS011;30723;51.206;3.326;2023-02-08T17:30:37;23.80;;;11.82;;
44989;SDS011;30723;51.206;3.326;2023-02-08T17:33:05;34.90;;;14.90;;
44989;SDS011;30723;51.206;3.326;2023-02-08T17:35:35;37.17;;;16.67;;